createdAt,value
2022-08-03T00:01:25.423Z,26.30
2022-08-03T00:03:51.965Z,26.20
2022-08-03T00:06:18.481Z,26.23
2022-08-03T00:08:45.105Z,26.16
2022-08-03T00:11:11.836Z,26.19
2022-08-03T00:13:38.409Z,26.27
2022-08-03T00:16:05.482Z,26.23
2022-08-03T00:18:32.155Z,26.23
2022-08-03T00:20:58.659Z,26.40
2022-08-03T00:23:25.263Z,26.34
2022-08-03T00:25:52.099Z,26.26
2022-08-03T00:28:18.635Z,26.36
2022-08-03T00:30:45.272Z,26.34
2022-08-03T00:33:12.019Z,26.43
2022-08-03T00:35:50.601Z,26.26
2022-08-03T00:38:18.336Z,26.25
2022-08-03T00:40:44.980Z,26.22
2022-08-03T00:43:11.661Z,26.12
2022-08-03T00:45:41.368Z,26.09
2022-08-03T00:48:30.155Z,26.04
2022-08-03T00:50:56.966Z,26.00
2022-08-03T00:53:24.426Z,26.09
2022-08-03T00:55:51.288Z,26.03
2022-08-03T00:58:17.843Z,25.90
2022-08-03T01:00:44.385Z,25.85
2022-08-03T01:03:12.028Z,25.74
2022-08-03T01:05:52.665Z,25.83
2022-08-03T01:08:19.122Z,25.71
2022-08-03T01:10:54.563Z,25.84
2022-08-03T01:14:04.677Z,25.76
2022-08-03T01:16:37.239Z,25.71
2022-08-03T01:19:06.655Z,25.73
2022-08-03T01:21:52.352Z,25.66
2022-08-03T01:24:46.837Z,25.72
2022-08-03T01:27:31.306Z,25.74
2022-08-03T01:30:05.248Z,25.71
2022-08-03T01:33:01.643Z,25.81
2022-08-03T01:36:13.240Z,25.75
2022-08-03T01:38:47.650Z,25.82
2022-08-03T01:41:20.160Z,25.83
2022-08-03T01:44:28.448Z,25.75
2022-08-03T01:46:38.438Z,25.74
2022-08-03T01:49:09.376Z,25.70
2022-08-03T01:52:02.681Z,25.58
2022-08-03T01:54:27.118Z,25.56
2022-08-03T01:56:56.749Z,25.45
2022-08-03T01:59:26.410Z,25.37
2022-08-03T02:02:29.142Z,25.38
2022-08-03T02:04:43.723Z,25.27
2022-08-03T02:07:11.403Z,25.45
2022-08-03T02:09:40.169Z,25.47
2022-08-03T02:12:11.410Z,25.48
2022-08-03T02:14:40.887Z,25.35
2022-08-03T02:17:08.252Z,25.40
2022-08-03T02:19:36.336Z,25.28
2022-08-03T02:22:05.112Z,25.23
2022-08-03T02:24:32.091Z,25.13
2022-08-03T02:27:00.250Z,25.12
2022-08-03T02:29:39.384Z,25.23
2022-08-03T02:32:12.512Z,25.32
2022-08-03T02:34:42.403Z,25.30
2022-08-03T02:37:12.107Z,25.25
2022-08-03T02:39:42.878Z,25.24
2022-08-03T02:42:12.727Z,25.21
2022-08-03T02:44:43.746Z,25.27
2022-08-03T02:47:12.568Z,25.18
2022-08-03T02:49:51.619Z,25.11
2022-08-03T02:52:21.361Z,25.06
2022-08-03T02:54:51.196Z,24.98
2022-08-03T02:57:19.974Z,24.94
2022-08-03T02:59:47.642Z,24.98
2022-08-03T03:02:16.422Z,24.95
2022-08-03T03:04:59.737Z,24.85
2022-08-03T03:07:34.642Z,24.87
2022-08-03T03:10:19.353Z,24.92
2022-08-03T03:12:47.409Z,24.91
2022-08-03T03:15:14.130Z,24.95
2022-08-03T03:17:43.178Z,24.92
2022-08-03T03:20:10.715Z,24.75
2022-08-03T03:22:38.857Z,24.78
2022-08-03T03:25:07.436Z,24.81
2022-08-03T03:27:34.645Z,24.78
2022-08-03T03:30:02.565Z,24.74
2022-08-03T03:32:29.649Z,24.73
2022-08-03T03:34:59.255Z,24.77
2022-08-03T03:37:29.197Z,24.85
2022-08-03T03:39:56.294Z,24.77
2022-08-03T03:42:23.438Z,24.84
2022-08-03T03:44:50.159Z,24.84
2022-08-03T03:47:17.253Z,24.76
2022-08-03T03:49:59.524Z,24.68
2022-08-03T03:52:26.018Z,24.73
2022-08-03T03:54:53.799Z,24.69
2022-08-03T03:57:22.011Z,24.67
2022-08-03T03:59:49.072Z,24.72
2022-08-03T04:02:15.930Z,24.69
2022-08-03T04:05:01.483Z,24.65
2022-08-03T04:07:47.093Z,24.54
2022-08-03T04:10:39.840Z,24.54
2022-08-03T04:13:12.388Z,24.60
2022-08-03T04:15:40.103Z,24.41
2022-08-03T04:18:09.986Z,24.39
2022-08-03T04:20:38.783Z,24.28
2022-08-03T04:23:15.537Z,24.22
2022-08-03T04:25:43.909Z,24.26
2022-08-03T04:28:30.486Z,24.30
2022-08-03T04:30:59.822Z,24.23
2022-08-03T04:33:30.312Z,24.29
2022-08-03T04:36:02.630Z,24.14
2022-08-03T04:38:32.878Z,24.31
2022-08-03T04:41:01.165Z,24.16
2022-08-03T04:43:28.375Z,24.18
2022-08-03T04:45:56.069Z,24.18
2022-08-03T04:48:22.859Z,24.50
2022-08-03T04:50:49.536Z,24.70
2022-08-03T04:53:18.025Z,24.82
2022-08-03T04:55:44.777Z,24.92
2022-08-03T04:58:12.598Z,24.99
2022-08-03T05:00:39.353Z,25.04
2022-08-03T05:03:23.885Z,25.09
2022-08-03T05:06:02.019Z,25.15
2022-08-03T05:08:41.191Z,25.20
2022-08-03T05:11:13.324Z,25.25
2022-08-03T05:13:39.815Z,25.29
2022-08-03T05:16:06.326Z,25.33
2022-08-03T05:18:32.904Z,25.37
2022-08-03T05:20:59.456Z,25.40
2022-08-03T05:23:26.011Z,25.44
2022-08-03T05:25:52.503Z,25.47
2022-08-03T05:28:19.118Z,25.51
2022-08-03T05:30:45.636Z,25.53
2022-08-03T05:36:01.089Z,25.59
2022-08-03T05:38:28.508Z,25.63
2022-08-03T05:41:21.021Z,25.65
2022-08-03T05:43:46.688Z,25.69
2022-08-03T05:46:13.417Z,25.71
2022-08-03T05:48:40.489Z,25.74
2022-08-03T05:51:11.052Z,25.76
2022-08-03T05:53:38.358Z,25.78
2022-08-03T05:56:13.997Z,25.81
2022-08-03T05:58:46.958Z,25.85
2022-08-03T06:01:14.874Z,25.88
2022-08-03T06:03:41.505Z,25.90
2022-08-03T06:06:08.481Z,25.94
2022-08-03T06:08:35.431Z,25.95
2022-08-03T06:11:02.079Z,25.96
2022-08-03T06:13:28.825Z,25.99
2022-08-03T06:15:55.395Z,26.00
2022-08-03T06:18:21.955Z,26.04
2022-08-03T06:20:49.464Z,26.05
2022-08-03T06:23:17.968Z,26.07
2022-08-03T06:25:45.287Z,26.10
2022-08-03T06:28:35.228Z,26.10
2022-08-03T06:31:01.016Z,26.12
2022-08-03T06:34:31.218Z,26.14
2022-08-03T06:36:14.384Z,26.17
2022-08-03T06:38:40.901Z,26.20
2022-08-03T06:41:07.444Z,26.21
2022-08-03T06:43:37.620Z,26.24
2022-08-03T06:46:06.047Z,26.26
2022-08-03T06:48:32.753Z,26.27
2022-08-03T06:50:59.477Z,26.29
2022-08-03T06:53:26.126Z,26.31
2022-08-03T06:55:55.023Z,26.34
2022-08-03T06:58:22.194Z,26.36
2022-08-03T07:00:50.924Z,26.37
2022-08-03T07:03:17.599Z,26.38
2022-08-03T07:05:46.578Z,26.39
2022-08-03T07:08:14.011Z,26.42
2022-08-03T07:10:40.507Z,26.44
2022-08-03T07:13:07.429Z,26.46
2022-08-03T07:15:54.247Z,26.47
2022-08-03T07:18:27.608Z,26.49
2022-08-03T07:20:56.422Z,26.51
2022-08-03T07:23:22.959Z,26.52
2022-08-03T07:25:50.759Z,26.55
2022-08-03T07:30:42.827Z,26.58
2022-08-03T07:33:09.382Z,26.60
2022-08-03T07:35:35.905Z,26.61
2022-08-03T07:40:31.507Z,26.64
2022-08-03T07:42:58.741Z,26.66
2022-08-03T07:45:26.860Z,26.67
2022-08-03T07:47:54.503Z,26.69
2022-08-03T07:50:21.889Z,26.70
2022-08-03T07:52:49.566Z,26.71
2022-08-03T07:55:18.082Z,26.73
2022-08-03T07:57:44.719Z,26.74
2022-08-03T08:00:19.262Z,26.76
2022-08-03T08:02:46.194Z,26.76
2022-08-03T08:05:13.220Z,26.78
2022-08-03T08:07:40.150Z,26.80
2022-08-03T08:10:10.116Z,26.81
2022-08-03T08:12:37.861Z,26.82
2022-08-03T08:15:05.246Z,26.85
2022-08-03T08:17:31.884Z,26.87
2022-08-03T08:19:58.421Z,26.87
2022-08-03T08:22:29.850Z,26.88
2022-08-03T08:24:56.832Z,26.88
2022-08-03T08:27:23.650Z,26.92
2022-08-03T08:29:52.678Z,26.93
2022-08-03T08:32:23.646Z,26.94
2022-08-03T08:34:53.279Z,26.96
2022-08-03T08:37:19.775Z,26.96
2022-08-03T08:39:46.295Z,26.97
2022-08-03T08:42:12.955Z,26.99
2022-08-03T08:44:39.825Z,27.02
2022-08-03T08:47:08.308Z,27.01
2022-08-03T08:49:38.794Z,27.02
2022-08-03T08:52:25.452Z,27.03
2022-08-03T08:55:00.147Z,27.03
2022-08-03T08:57:42.890Z,27.05
2022-08-03T09:00:14.050Z,27.08
2022-08-03T09:02:44.817Z,27.09
2022-08-03T09:05:13.650Z,27.09
2022-08-03T09:07:44.709Z,27.10
2022-08-03T09:10:13.998Z,27.13
2022-08-03T09:12:46.156Z,27.15
2022-08-03T09:15:31.282Z,27.15
2022-08-03T09:18:00.130Z,27.17
2022-08-03T09:20:29.003Z,27.19
2022-08-03T09:22:59.688Z,27.19
2022-08-03T09:25:34.222Z,27.20
2022-08-03T09:28:11.035Z,27.20
2022-08-03T09:30:40.545Z,27.22
2022-08-03T09:33:09.884Z,27.23
2022-08-03T09:35:53.641Z,27.25
2022-08-03T09:38:28.562Z,27.25
2022-08-03T09:41:00.115Z,27.30
2022-08-03T09:43:27.681Z,27.29
2022-08-03T09:46:04.111Z,27.29
2022-08-03T09:48:31.789Z,27.29
2022-08-03T09:51:32.312Z,27.30
2022-08-03T09:53:58.991Z,27.30
2022-08-03T09:56:45.224Z,27.30
2022-08-03T09:59:13.874Z,27.30
2022-08-03T10:01:42.015Z,27.30
2022-08-03T10:04:17.181Z,27.31
2022-08-03T10:09:28.183Z,27.32
2022-08-03T10:11:55.254Z,27.32
2022-08-03T10:14:23.401Z,27.31
2022-08-03T10:16:50.232Z,27.33
2022-08-03T10:19:17.486Z,27.34
2022-08-03T10:21:51.145Z,27.33
2022-08-03T10:24:24.269Z,27.35
2022-08-03T10:29:25.183Z,27.36
2022-08-03T10:31:58.019Z,27.36
2022-08-03T10:34:27.567Z,27.38
2022-08-03T10:39:28.750Z,27.41
2022-08-03T10:41:58.697Z,27.41
2022-08-03T10:44:32.598Z,27.42
2022-08-03T10:46:59.573Z,27.43
2022-08-03T10:49:33.867Z,27.41
2022-08-03T10:52:13.852Z,27.46
2022-08-03T10:55:10.180Z,27.44
2022-08-03T10:57:49.921Z,27.44
2022-08-03T11:00:21.670Z,27.48
2022-08-03T11:03:08.710Z,27.49
2022-08-03T11:05:38.177Z,27.51
2022-08-03T11:08:19.210Z,27.48
2022-08-03T11:10:46.750Z,27.50
2022-08-03T11:13:18.229Z,27.53
2022-08-03T11:15:47.824Z,27.51
2022-08-03T11:18:15.345Z,27.54
2022-08-03T11:20:46.066Z,27.53
2022-08-03T11:23:12.985Z,27.53
2022-08-03T11:26:18.731Z,27.54
2022-08-03T11:28:47.504Z,27.55
2022-08-03T11:31:48.170Z,27.57
2022-08-03T11:34:10.873Z,27.56
2022-08-03T11:37:15.223Z,27.59
2022-08-03T11:39:47.461Z,27.60
2022-08-03T11:42:23.159Z,27.61
2022-08-03T11:45:00.363Z,27.63
2022-08-03T11:47:29.669Z,27.63
2022-08-03T11:50:00.223Z,27.66
2022-08-03T11:52:28.876Z,27.68
2022-08-03T11:54:56.439Z,27.68
2022-08-03T11:59:16.499Z,27.69
2022-08-03T12:00:32.461Z,27.70
2022-08-03T12:03:06.415Z,27.72
2022-08-03T12:05:37.256Z,27.73
2022-08-03T12:10:30.021Z,27.78
2022-08-03T12:12:58.187Z,27.79
2022-08-03T12:15:29.989Z,27.82
2022-08-03T12:17:58.281Z,27.83
2022-08-03T12:23:04.582Z,27.87
2022-08-03T12:25:39.524Z,27.88
2022-08-03T12:28:37.021Z,27.90
2022-08-03T12:31:06.412Z,27.92
2022-08-03T12:34:00.414Z,27.94
2022-08-03T12:36:29.975Z,27.96
2022-08-03T12:38:59.147Z,27.97
2022-08-03T12:41:35.094Z,27.98
2022-08-03T12:44:04.008Z,27.97
2022-08-03T12:46:36.511Z,27.99
2022-08-03T12:49:19.452Z,28.02
2022-08-03T12:51:45.954Z,28.05
2022-08-03T12:54:24.778Z,28.06
2022-08-03T12:57:11.096Z,28.08
2022-08-03T12:59:52.641Z,28.09
2022-08-03T13:02:23.609Z,28.12
2022-08-03T13:04:52.396Z,28.14
2022-08-03T13:07:20.485Z,28.16
2022-08-03T13:09:53.179Z,28.18
2022-08-03T13:12:21.869Z,28.19
2022-08-03T13:14:51.094Z,28.22
2022-08-03T13:17:18.393Z,28.24
2022-08-03T13:19:46.304Z,28.26
2022-08-03T13:22:21.343Z,28.29
2022-08-03T13:24:50.402Z,28.30
2022-08-03T13:27:58.911Z,28.32
2022-08-03T13:30:04.832Z,28.36
2022-08-03T13:32:31.592Z,28.35
2022-08-03T13:34:58.279Z,28.38
2022-08-03T13:37:25.608Z,28.41
2022-08-03T13:39:58.727Z,28.42
2022-08-03T13:42:29.507Z,28.45
2022-08-03T13:44:56.102Z,28.46
2022-08-03T13:47:23.010Z,28.47
2022-08-03T13:49:59.982Z,28.51
2022-08-03T13:52:32.399Z,28.54
2022-08-03T13:54:59.043Z,28.55
2022-08-03T13:58:11.928Z,28.58
2022-08-03T14:00:12.712Z,28.60
2022-08-03T14:02:43.944Z,28.61
2022-08-03T14:05:10.578Z,28.64
2022-08-03T14:07:37.240Z,28.66
2022-08-03T14:12:29.401Z,28.69
2022-08-03T14:17:23.305Z,28.74
2022-08-03T14:19:52.789Z,28.74
2022-08-03T14:22:20.691Z,28.78
2022-08-03T14:24:47.216Z,28.80
2022-08-03T14:27:13.710Z,28.82
2022-08-03T14:29:40.223Z,28.83
2022-08-03T14:32:09.428Z,28.85
2022-08-03T14:34:38.854Z,28.88
2022-08-03T14:37:05.413Z,28.90
2022-08-03T14:39:58.301Z,28.92
2022-08-03T14:42:20.255Z,28.94
2022-08-03T14:44:47.215Z,28.96
2022-08-03T14:47:14.316Z,28.96
2022-08-03T14:50:33.510Z,28.99
2022-08-03T14:52:27.577Z,29.02
2022-08-03T14:54:54.141Z,29.03
2022-08-03T14:57:20.901Z,29.03
2022-08-03T14:59:59.762Z,29.07
2022-08-03T15:02:26.717Z,29.08
2022-08-03T15:04:53.257Z,29.11
2022-08-03T15:07:20.866Z,29.12
2022-08-03T15:09:47.764Z,29.15
2022-08-03T15:12:14.453Z,29.18
2022-08-03T15:14:41.008Z,29.18
2022-08-03T15:17:07.895Z,29.21
2022-08-03T15:20:00.383Z,29.23
2022-08-03T15:22:25.422Z,29.24
2022-08-03T15:26:31.914Z,29.26
2022-08-03T15:28:03.718Z,29.29
2022-08-03T15:30:31.449Z,29.31
2022-08-03T15:32:57.971Z,29.31
2022-08-03T15:37:50.159Z,29.35
2022-08-03T15:40:16.674Z,29.37
2022-08-03T15:42:43.164Z,29.38
2022-08-03T15:45:10.061Z,29.39
2022-08-03T15:47:36.655Z,29.41
2022-08-03T15:50:07.805Z,29.44
2022-08-03T15:52:36.089Z,29.46
2022-08-03T15:55:02.643Z,29.48
2022-08-03T15:57:29.190Z,29.50
2022-08-03T16:02:21.327Z,29.55
2022-08-03T16:04:47.864Z,29.56
2022-08-03T16:07:15.909Z,29.57
2022-08-03T16:12:14.548Z,29.60
2022-08-03T16:14:51.869Z,29.63
2022-08-03T16:17:20.640Z,29.64
2022-08-03T16:19:47.421Z,29.65
2022-08-03T16:22:14.558Z,29.66
2022-08-03T16:24:41.467Z,29.65
2022-08-03T16:27:36.787Z,29.69
2022-08-03T16:32:20.945Z,29.71
2022-08-03T16:34:48.253Z,29.71
2022-08-03T16:37:37.761Z,29.74
2022-08-03T16:40:02.599Z,29.76
2022-08-03T16:42:29.233Z,29.77
2022-08-03T16:44:55.763Z,29.77
2022-08-03T16:47:23.009Z,29.79
2022-08-03T16:49:53.743Z,29.80
2022-08-03T16:52:23.776Z,29.83
2022-08-03T16:54:53.544Z,29.84
2022-08-03T16:57:29.956Z,29.85
2022-08-03T17:00:33.720Z,29.86
2022-08-03T17:03:04.184Z,29.86
2022-08-03T17:05:43.828Z,29.86
2022-08-03T17:10:44.626Z,29.89
2022-08-03T17:13:21.453Z,29.91
2022-08-03T17:16:01.087Z,29.91
2022-08-03T17:18:35.024Z,29.93
2022-08-03T17:21:06.416Z,29.93
2022-08-03T17:23:50.363Z,29.93
2022-08-03T17:26:22.063Z,29.95
2022-08-03T17:28:57.418Z,29.96
2022-08-03T17:31:32.145Z,29.96
2022-08-03T17:34:01.613Z,29.98
2022-08-03T17:37:01.729Z,29.99
2022-08-03T17:39:19.333Z,30.00
2022-08-03T17:41:55.355Z,30.02
2022-08-03T17:44:31.065Z,30.02
2022-08-03T17:47:06.624Z,29.99
2022-08-03T17:49:40.032Z,30.01
2022-08-03T17:52:35.641Z,30.03
2022-08-03T17:55:50.637Z,30.04
2022-08-03T17:58:06.958Z,30.05
2022-08-03T18:00:56.269Z,30.05
2022-08-03T18:06:55.541Z,30.05
2022-08-03T18:10:04.424Z,30.07
2022-08-03T18:12:15.458Z,30.09
2022-08-03T18:14:57.587Z,30.08
2022-08-03T18:17:54.646Z,30.09
2022-08-03T18:20:34.438Z,30.08
2022-08-03T18:23:07.013Z,30.09
2022-08-03T18:25:45.263Z,30.13
2022-08-03T18:28:16.212Z,30.14
2022-08-03T18:34:16.630Z,30.16
2022-08-03T18:36:00.222Z,30.17
2022-08-03T18:38:27.809Z,30.17
2022-08-03T18:40:54.369Z,30.18
2022-08-03T18:43:22.538Z,30.18
2022-08-03T18:46:28.809Z,30.19
2022-08-03T18:49:16.611Z,30.20
2022-08-03T18:51:46.578Z,30.19
2022-08-03T18:54:51.032Z,30.19
2022-08-03T18:57:18.390Z,30.20
2022-08-03T19:02:34.237Z,30.21
2022-08-03T19:05:10.754Z,30.20
2022-08-03T19:07:41.703Z,30.21
2022-08-03T19:10:10.445Z,30.21
2022-08-03T19:12:52.104Z,30.20
2022-08-03T19:15:36.147Z,30.21
2022-08-03T19:18:08.821Z,30.21
2022-08-03T19:23:03.658Z,30.21
2022-08-03T19:25:35.342Z,30.21
2022-08-03T19:28:06.065Z,30.21
2022-08-03T19:33:13.741Z,30.19
2022-08-03T19:35:57.140Z,30.19
2022-08-03T19:40:52.946Z,30.19
2022-08-03T19:43:53.765Z,30.20
2022-08-03T19:46:31.074Z,30.19
2022-08-03T19:49:03.250Z,30.20
2022-08-03T19:51:58.371Z,30.19
2022-08-03T19:54:29.812Z,30.19
2022-08-03T19:59:49.974Z,30.19
2022-08-03T20:02:26.872Z,30.18
2022-08-03T20:04:59.829Z,30.18
2022-08-03T20:07:28.784Z,30.19
2022-08-03T20:09:57.106Z,30.17
2022-08-03T20:12:28.290Z,30.12
2022-08-03T20:14:58.600Z,30.14
2022-08-03T20:17:54.970Z,30.16
2022-08-03T20:20:13.606Z,30.17
2022-08-03T20:22:46.227Z,30.15
2022-08-03T20:25:16.295Z,30.15
2022-08-03T20:28:08.067Z,30.15
2022-08-03T20:30:39.590Z,30.14
2022-08-03T20:33:09.919Z,30.14
2022-08-03T20:35:36.460Z,30.14
2022-08-03T20:38:03.266Z,30.13
2022-08-03T20:40:29.833Z,30.11
2022-08-03T20:42:57.255Z,30.12
2022-08-03T20:46:01.009Z,30.11
2022-08-03T20:48:10.753Z,30.11
2022-08-03T20:50:40.723Z,30.09
2022-08-03T20:53:12.002Z,30.09
2022-08-03T20:55:47.141Z,30.09
2022-08-03T20:58:17.841Z,30.08
2022-08-03T21:00:46.781Z,30.08
2022-08-03T21:03:18.737Z,30.08
2022-08-03T21:05:51.679Z,30.05
2022-08-03T21:08:22.562Z,30.04
2022-08-03T21:10:52.596Z,30.05
2022-08-03T21:13:57.386Z,30.05
2022-08-03T21:16:28.998Z,30.04
2022-08-03T21:21:30.654Z,30.02
2022-08-03T21:23:59.280Z,30.04
2022-08-03T21:26:26.900Z,30.02
2022-08-03T21:28:56.210Z,30.01
2022-08-03T21:31:25.617Z,30.02
2022-08-03T21:34:04.244Z,30.00
2022-08-03T21:36:36.030Z,29.99
2022-08-03T21:39:06.039Z,29.98
2022-08-03T21:41:32.749Z,29.99
2022-08-03T21:44:00.713Z,29.96
2022-08-03T21:46:33.985Z,29.96
2022-08-03T21:50:06.038Z,29.97
2022-08-03T21:51:59.834Z,29.96
2022-08-03T21:54:35.539Z,29.95
2022-08-03T21:57:19.206Z,29.96
2022-08-03T21:59:54.122Z,29.96
2022-08-03T22:02:34.464Z,29.95
2022-08-03T22:05:05.097Z,29.93
2022-08-03T22:07:33.822Z,29.92
2022-08-03T22:12:42.985Z,29.93
2022-08-03T22:15:12.376Z,29.91
2022-08-03T22:17:55.709Z,29.90
2022-08-03T22:20:23.258Z,29.91
2022-08-03T22:22:55.744Z,29.91
2022-08-03T22:25:28.709Z,29.90
2022-08-03T22:27:56.666Z,29.91
2022-08-03T22:30:23.442Z,29.90
2022-08-03T22:32:53.169Z,29.90
2022-08-03T22:35:21.327Z,29.87
2022-08-03T22:37:53.847Z,29.86
2022-08-03T22:40:20.567Z,29.88
2022-08-03T22:42:50.530Z,29.87
2022-08-03T22:46:06.169Z,29.87
2022-08-03T22:48:07.969Z,29.87
2022-08-03T22:50:34.845Z,29.84
2022-08-03T22:53:01.524Z,29.86
2022-08-03T22:55:28.292Z,29.85
2022-08-03T22:57:55.995Z,29.83
2022-08-03T23:00:23.904Z,29.84
2022-08-03T23:02:51.602Z,29.82
2022-08-03T23:06:02.460Z,29.82
2022-08-03T23:08:14.696Z,29.83
2022-08-03T23:10:46.851Z,29.79
2022-08-03T23:13:17.498Z,29.81
2022-08-03T23:15:51.160Z,29.81
2022-08-03T23:18:20.205Z,29.78
2022-08-03T23:20:52.754Z,29.79
2022-08-03T23:23:20.735Z,29.80
2022-08-03T23:25:50.442Z,29.79
2022-08-03T23:28:17.727Z,29.80
2022-08-03T23:30:45.543Z,29.80
2022-08-03T23:33:14.909Z,29.78
2022-08-03T23:36:28.210Z,29.78
2022-08-03T23:38:44.974Z,29.77
2022-08-03T23:41:13.391Z,29.74
2022-08-03T23:43:51.167Z,29.73
2022-08-03T23:46:19.784Z,29.75
2022-08-03T23:48:46.430Z,29.76
2022-08-03T23:51:49.666Z,29.74
2022-08-03T23:54:26.642Z,29.74
2022-08-03T23:57:22.172Z,29.74
2022-08-03T23:59:58.088Z,29.73
